Time;durP1;ratioP1;P1;durP2;ratioP2;P2;SDS_P1;SDS_P2;PMS_P1;PMS_P2;Temp;Humidity;BMP_temperature;BMP_pressure;BME280_temperature;BME280_humidity;BME280_pressure;Samples;Min_cycle;Max_cycle;Signal;HPM_P1;HPM_P2
2021/06/07 00:00:00;;;;;;;5.63;5.00;;;;;;;17.13;51.63;100400.34;126779;1089;114473;-80
2021/06/07 00:03:07;;;;;;;6.40;4.10;;;;;;;17.10;51.58;100394.41;126852;1088;103185;-80
2021/06/07 00:05:55;;;;;;;9.93;5.30;;;;;;;17.09;51.95;100397.98;126794;1090;114600;-80
2021/06/07 00:08:43;;;;;;;6.43;5.23;;;;;;;17.07;52.17;100395.44;126939;1088;102641;-80
2021/06/07 00:11:31;;;;;;;7.63;5.10;;;;;;;17.05;52.31;100399.06;126722;1090;113537;-80
2021/06/07 00:14:22;;;;;;;6.13;4.90;;;;;;;17.02;52.09;100391.34;126827;1089;102946;-80
2021/06/07 00:17:10;;;;;;;9.50;5.00;;;;;;;16.99;52.01;100388.88;126690;1089;114220;-80
2021/06/07 00:19:58;;;;;;;7.30;6.03;;;;;;;16.96;52.62;100392.55;126919;1089;102868;-80
2021/06/07 00:22:45;;;;;;;7.40;6.53;;;;;;;16.93;52.52;100391.88;126916;1088;103363;-80
2021/06/07 00:25:33;;;;;;;7.57;6.00;;;;;;;16.90;52.79;100399.02;126827;1089;113922;-80
2021/06/07 00:28:22;;;;;;;7.53;5.60;;;;;;;16.88;52.99;100379.81;126797;1090;102844;-80
2021/06/07 00:31:11;;;;;;;9.80;6.60;;;;;;;16.85;52.91;100387.86;126802;1090;113025;-80
2021/06/07 00:33:59;;;;;;;7.43;5.40;;;;;;;16.83;53.11;100392.38;126855;1090;102847;-81
2021/06/07 00:36:47;;;;;;;6.50;5.60;;;;;;;16.78;53.15;100394.42;126787;1089;114178;-81
2021/06/07 00:39:34;;;;;;;8.00;5.35;;;;;;;16.73;53.46;100392.98;126972;1090;103840;-81
2021/06/07 00:42:22;;;;;;;7.17;5.37;;;;;;;16.69;53.42;100400.18;126824;1088;114399;-80
2021/06/07 00:45:16;;;;;;;11.33;6.03;;;;;;;16.63;53.85;100395.22;126881;1089;102720;-80
2021/06/07 00:48:05;;;;;;;6.93;5.63;;;;;;;16.59;53.70;100393.70;126725;1090;114342;-81
2021/06/07 00:50:57;;;;;;;10.37;6.07;;;;;;;16.54;53.79;100401.01;126826;1090;102893;-80
2021/06/07 00:53:45;;;;;;;6.07;5.10;;;;;;;16.54;53.80;100395.74;126733;1090;114577;-81
2021/06/07 00:56:34;;;;;;;6.23;5.03;;;;;;;16.52;53.46;100397.61;126907;1090;102901;-81
2021/06/07 00:59:22;;;;;;;9.47;5.17;;;;;;;16.47;54.16;100395.20;126754;1089;114567;-81
2021/06/07 01:02:10;;;;;;;6.20;4.97;;;;;;;16.44;54.22;100397.16;126849;1090;102997;-81
2021/06/07 01:04:58;;;;;;;6.40;5.60;;;;;;;16.41;54.31;100402.59;126848;1090;103023;-81
2021/06/07 01:07:46;;;;;;;10.23;7.03;;;;;;;16.39;54.47;100399.20;126792;1090;113142;-81
2021/06/07 01:10:34;;;;;;;13.33;7.37;;;;;;;16.38;54.27;100400.98;126899;1090;102981;-81
2021/06/07 01:13:24;;;;;;;8.90;6.30;;;;;;;16.37;54.48;100398.44;126724;1089;113168;-81
2021/06/07 01:16:12;;;;;;;7.40;6.03;;;;;;;16.36;54.77;100399.37;126808;1090;102889;-80
2021/06/07 01:19:00;;;;;;;10.07;6.60;;;;;;;16.35;54.87;100395.89;126855;1088;114294;-81
2021/06/07 01:21:47;;;;;;;9.67;5.80;;;;;;;16.31;54.93;100397.81;126911;1089;102941;-81
2021/06/07 01:24:35;;;;;;;5.90;5.30;;;;;;;16.27;55.20;100396.28;126830;1090;114087;-81
2021/06/07 01:27:24;;;;;;;6.40;5.53;;;;;;;16.24;55.24;100388.55;126862;1090;102945;-81
2021/06/07 01:30:15;;;;;;;5.77;5.17;;;;;;;16.21;54.94;100393.98;126801;1090;114366;-81
2021/06/07 01:33:07;;;;;;;6.60;5.20;;;;;;;16.17;54.81;100396.86;126924;1089;102882;-81
2021/06/07 01:35:58;;;;;;;6.00;5.17;;;;;;;16.14;55.06;100391.73;126855;1090;114500;-81
2021/06/07 01:38:47;;;;;;;6.20;5.37;;;;;;;16.09;55.20;100389.36;126937;1089;102843;-81
2021/06/07 01:41:36;;;;;;;11.90;5.10;;;;;;;16.06;55.21;100396.56;126761;1088;114478;-81
2021/06/07 01:44:24;;;;;;;7.60;5.73;;;;;;;16.01;55.29;100397.66;126788;1089;102930;-81
2021/06/07 01:47:12;;;;;;;8.97;7.27;;;;;;;15.99;55.39;100398.68;126827;1088;103017;-81
2021/06/07 01:49:59;;;;;;;7.07;5.97;;;;;;;15.95;55.36;100391.84;126712;1090;113122;-81
2021/06/07 01:52:49;;;;;;;7.97;5.77;;;;;;;15.92;55.28;100390.23;126934;1090;101669;-81
2021/06/07 01:55:40;;;;;;;6.10;5.03;;;;;;;15.88;55.38;100396.59;126822;1089;114294;-80
2021/06/07 01:58:29;;;;;;;6.07;4.93;;;;;;;15.86;55.34;100402.86;126934;1090;102846;-80
2021/06/07 02:01:21;;;;;;;5.77;4.80;;;;;;;15.84;55.64;100407.36;126721;1089;114120;-81
2021/06/07 02:04:09;;;;;;;6.77;5.03;;;;;;;15.83;55.44;100409.14;126944;1090;102959;-80
2021/06/07 02:06:58;;;;;;;6.53;4.80;;;;;;;15.81;55.64;100402.26;126780;1088;114446;-81
2021/06/07 02:09:46;;;;;;;8.17;5.03;;;;;;;15.80;55.54;100403.16;126909;1090;102642;-80
2021/06/07 02:12:34;;;;;;;;;;;;;;;15.82;55.96;100403.95;126728;1089;114188;-80
2021/06/07 02:15:23;;;;;;;7.15;4.58;;;;;;;15.80;55.74;100408.41;126926;1088;102874;-81
2021/06/07 02:18:11;;;;;;;5.23;4.73;;;;;;;15.81;55.67;100407.52;126885;1090;113901;-81
2021/06/07 02:21:00;;;;;;;6.97;5.07;;;;;;;15.81;55.83;100399.63;126913;1090;103052;-81
2021/06/07 02:23:49;;;;;;;6.03;4.83;;;;;;;15.81;55.65;100405.73;126812;1089;114163;-81
2021/06/07 02:26:37;;;;;;;6.30;5.10;;;;;;;15.82;55.65;100407.44;126826;1088;102849;-80
2021/06/07 02:29:25;;;;;;;6.80;5.50;;;;;;;15.84;55.81;100409.98;126988;1088;102918;-80
2021/06/07 02:32:12;;;;;;;6.77;5.17;;;;;;;15.85;55.76;100406.42;126813;1089;114044;-81
2021/06/07 02:35:01;;;;;;;5.80;5.20;;;;;;;15.86;55.96;100403.72;126966;1089;103355;-80
2021/06/07 02:37:51;;;;;;;5.60;5.00;;;;;;;15.89;55.56;100405.33;126708;1088;114498;-80
2021/06/07 02:40:41;;;;;;;5.60;4.90;;;;;;;15.90;55.49;100409.66;126983;1089;102936;-80
2021/06/07 02:43:29;;;;;;;8.37;5.87;;;;;;;15.92;55.62;100407.80;126831;1090;114491;-80
2021/06/07 02:46:19;;;;;;;7.13;5.67;;;;;;;15.92;55.49;100407.80;126927;1089;102888;-80
2021/06/07 02:49:07;;;;;;;7.20;5.10;;;;;;;15.91;55.38;100401.69;126747;1088;114183;-80
2021/06/07 02:51:55;;;;;;;7.57;4.73;;;;;;;15.92;55.26;100407.80;126843;1090;102922;-80
2021/06/07 02:54:43;;;;;;;6.23;4.63;;;;;;;15.92;55.33;100403.39;126766;1090;114111;-80
2021/06/07 02:57:31;;;;;;;5.07;4.53;;;;;;;15.94;55.27;100405.94;126846;1090;102898;-80
2021/06/07 03:00:32;;;;;;;5.17;4.57;;;;;;;15.94;55.22;100405.94;126645;1089;114238;-80
2021/06/07 03:03:22;;;;;;;6.63;4.60;;;;;;;15.93;55.05;100410.34;126829;1090;102891;-80
2021/06/07 03:06:10;;;;;;;5.03;4.30;;;;;;;15.95;55.06;100408.48;126839;1089;114541;-80
2021/06/07 03:08:58;;;;;;;5.03;4.53;;;;;;;15.97;55.09;100419.77;126925;1089;102857;-80
2021/06/07 03:11:46;;;;;;;5.87;4.70;;;;;;;15.98;55.19;100412.77;126955;1090;102875;-81
2021/06/07 03:14:35;;;;;;;5.13;4.60;;;;;;;16.00;55.12;100413.53;126983;1090;102936;-81
2021/06/07 03:17:24;;;;;;;6.13;4.30;;;;;;;16.00;55.20;100417.02;126921;1089;101161;-81
2021/06/07 03:20:15;;;;;;;7.07;5.20;;;;;;;16.02;55.31;100422.19;126832;1090;114250;-81
2021/06/07 03:23:12;;;;;;;6.33;4.87;;;;;;;16.03;55.11;100418.63;126957;1090;102924;-81
2021/06/07 03:26:01;;;;;;;;;;;;;;;16.04;55.08;100422.11;126841;1088;114302;-80
2021/06/07 03:28:49;;;;;;;6.30;4.73;;;;;;;16.05;55.44;100418.55;126970;1088;102892;-80
2021/06/07 03:31:37;;;;;;;8.43;5.57;;;;;;;16.07;55.17;100417.53;126783;1090;114596;-80
2021/06/07 03:34:25;;;;;;;7.57;5.20;;;;;;;16.10;55.13;100420.00;126723;1090;103001;-80
2021/06/07 03:37:13;;;;;;;6.20;5.07;;;;;;;16.12;55.13;100420.77;126753;1090;114298;-80
2021/06/07 03:40:01;;;;;;;;;;;;;;;16.16;55.01;100430.22;126865;1090;102876;-80
2021/06/07 03:42:48;;;;;;;5.80;4.37;;;;;;;16.19;54.75;100424.80;126820;1088;101808;-80
2021/06/07 03:45:37;;;;;;;7.93;4.97;;;;;;;16.24;54.89;100414.87;126908;1089;102991;-80
2021/06/07 03:48:25;;;;;;;4.90;4.50;;;;;;;16.30;54.87;100425.06;126856;1089;114518;-80
2021/06/07 03:51:13;;;;;;;6.20;4.40;;;;;;;16.36;54.82;100423.06;126884;1089;102977;-80
2021/06/07 03:54:00;;;;;;;;;;;;;;;16.43;54.68;100420.00;126937;1088;102944;-80
2021/06/07 03:56:49;;;;;;;6.20;4.75;;;;;;;16.48;54.29;100417.11;126886;1090;102187;-80
2021/06/07 03:59:37;;;;;;;6.33;4.83;;;;;;;16.54;54.53;100417.66;126839;1088;102882;-80
2021/06/07 04:02:24;;;;;;;;;;;;;;;16.66;54.50;100426.66;126752;1089;114469;-80
2021/06/07 04:05:14;;;;;;;7.30;5.17;;;;;;;16.74;54.30;100424.50;126768;1089;102940;-80
2021/06/07 04:08:05;;;;;;;5.43;4.67;;;;;;;16.85;54.07;100421.26;126701;1090;114481;-79
2021/06/07 04:10:53;;;;;;;6.10;4.97;;;;;;;16.97;54.22;100430.28;126728;1090;102994;-79
2021/06/07 04:13:41;;;;;;;6.23;4.40;;;;;;;17.06;53.64;100425.36;126737;1090;114327;-79
2021/06/07 04:16:28;;;;;;;;;;;;;;;17.18;53.77;100434.34;126832;1090;102837;-79
2021/06/07 04:19:16;;;;;;;6.83;4.67;;;;;;;17.26;53.54;100429.50;126736;1089;102856;-79
2021/06/07 04:22:05;;;;;;;5.55;4.55;;;;;;;17.38;53.23;100438.48;126836;1090;102945;-79
2021/06/07 04:24:53;;;;;;;6.67;4.63;;;;;;;17.49;52.90;100429.02;126846;1089;114309;-79
2021/06/07 04:27:43;;;;;;;7.27;5.00;;;;;;;17.65;52.75;100436.05;126782;1089;102939;-81
2021/06/07 04:30:31;;;;;;;6.17;4.80;;;;;;;17.79;52.59;100431.70;126688;1090;113436;-79
2021/06/07 04:33:20;;;;;;;7.03;5.30;;;;;;;17.95;52.30;100433.41;126966;1088;102937;-80
2021/06/07 04:36:08;;;;;;;6.80;4.73;;;;;;;18.09;51.87;100434.28;126746;1090;102970;-80
2021/06/07 04:38:56;;;;;;;7.47;5.10;;;;;;;18.23;51.48;100435.25;126791;1090;113970;-79
2021/06/07 04:41:44;;;;;;;8.27;4.93;;;;;;;18.37;51.29;100440.55;126826;1089;102845;-81
2021/06/07 04:44:32;;;;;;;6.17;4.87;;;;;;;18.49;50.94;100444.20;126732;1089;113110;-81
2021/06/07 04:47:20;;;;;;;6.13;5.07;;;;;;;18.65;50.80;100448.47;126749;1090;102846;-81
2021/06/07 04:50:08;;;;;;;;;;;;;;;18.82;50.54;100444.77;126842;1089;113364;-81
2021/06/07 04:53:00;;;;;;;8.03;5.37;;;;;;;18.99;49.82;100446.34;126901;1090;102847;-81
2021/06/07 04:55:51;;;;;;;10.77;7.53;;;;;;;19.13;49.44;100451.61;126805;1089;114261;-80
2021/06/07 04:58:39;;;;;;;7.90;5.27;;;;;;;19.27;49.08;100446.28;126855;1089;103024;-81
2021/06/07 05:01:27;;;;;;;;;;;;;;;19.39;48.90;100444.64;126812;1090;114439;-81
2021/06/07 05:04:15;;;;;;;8.35;6.23;;;;;;;19.46;48.40;100445.08;126810;1090;102961;-81
2021/06/07 05:07:03;;;;;;;6.43;4.60;;;;;;;19.53;48.06;100444.56;126838;1089;114502;-81
2021/06/07 05:09:50;;;;;;;8.00;4.87;;;;;;;19.67;47.81;100438.39;126794;1090;102843;-81
2021/06/07 05:12:39;;;;;;;7.13;4.50;;;;;;;19.75;47.27;100446.69;126768;1090;114393;-81
2021/06/07 05:15:27;;;;;;;6.93;3.90;;;;;;;19.91;46.98;100446.47;126848;1090;103335;-81
2021/06/07 05:18:15;;;;;;;7.20;4.97;;;;;;;20.14;47.00;100442.28;126877;1089;102868;-81
2021/06/07 05:21:04;;;;;;;6.23;4.73;;;;;;;20.37;46.65;100448.63;126671;1089;114687;-81
2021/06/07 05:23:52;;;;;;;8.30;5.60;;;;;;;20.58;45.67;100446.30;126850;1088;102903;-79
2021/06/07 05:26:40;;;;;;;4.70;3.70;;;;;;;20.77;44.84;100436.09;126596;1089;113024;-81
2021/06/07 05:29:28;;;;;;;8.00;4.67;;;;;;;21.04;44.64;100444.72;126738;1090;102881;-81
2021/06/07 05:32:15;;;;;;;6.17;4.50;;;;;;;21.38;44.38;100439.64;126674;1090;114140;-81
2021/06/07 05:35:09;;;;;;;12.37;9.30;;;;;;;21.69;43.96;100440.83;126928;1089;104428;-81
2021/06/07 05:37:58;;;;;;;11.90;6.00;;;;;;;21.98;42.65;100441.28;126665;1089;114537;-81
2021/06/07 05:40:48;;;;;;;8.70;5.70;;;;;;;22.27;42.96;100447.05;126805;1090;102886;-81
2021/06/07 05:43:36;;;;;;;8.67;5.33;;;;;;;22.61;41.98;100448.73;126807;1089;114343;-81
2021/06/07 05:46:24;;;;;;;7.43;4.87;;;;;;;22.90;41.49;100451.77;126787;1090;102870;-81
2021/06/07 05:49:13;;;;;;;7.07;4.27;;;;;;;23.30;40.73;100445.87;126804;1090;114270;-81
2021/06/07 05:52:01;;;;;;;7.30;4.87;;;;;;;24.22;40.91;100438.16;126919;1088;102862;-81
2021/06/07 05:54:49;;;;;;;7.00;4.83;;;;;;;26.12;38.88;100438.84;126612;1090;114275;-81
2021/06/07 05:57:37;;;;;;;8.90;4.25;;;;;;;28.50;36.23;100437.47;126814;1089;102885;-81
2021/06/07 06:00:29;;;;;;;4.87;3.70;;;;;;;30.71;32.97;100436.67;126939;1089;102932;-81
2021/06/07 06:03:17;;;;;;;7.53;5.37;;;;;;;32.61;30.92;100418.62;126658;1088;114077;-80
2021/06/07 06:06:05;;;;;;;3.70;3.00;;;;;;;34.24;27.83;100418.80;126803;1090;102912;-80
2021/06/07 06:08:54;;;;;;;5.03;3.87;;;;;;;35.48;26.58;100424.95;126736;1090;114181;-81
2021/06/07 06:11:41;;;;;;;5.07;4.13;;;;;;;36.81;25.40;100414.78;126875;1090;102993;-79
2021/06/07 06:14:29;;;;;;;5.57;3.63;;;;;;;37.95;23.72;100422.78;126781;1090;114294;-80
2021/06/07 06:17:17;;;;;;;6.67;4.63;;;;;;;39.02;22.41;100422.42;126920;1088;102987;-78
2021/06/07 06:20:07;;;;;;;10.53;6.13;;;;;;;40.12;21.16;100418.16;126646;1089;114102;-81
2021/06/07 06:22:57;;;;;;;11.77;7.77;;;;;;;40.99;19.64;100412.63;126875;1089;102919;-82
2021/06/07 06:25:45;;;;;;;13.00;9.00;;;;;;;41.84;18.85;100417.13;126822;1088;114339;-78
2021/06/07 06:28:35;;;;;;;9.57;6.57;;;;;;;42.76;18.78;100416.47;126756;1088;102975;-81
2021/06/07 06:31:23;;;;;;;10.93;8.30;;;;;;;43.35;17.30;100430.29;126680;1090;114711;-83
2021/06/07 06:34:10;;;;;;;10.83;5.23;;;;;;;43.80;16.90;100425.44;126888;1090;102853;-81
2021/06/07 06:36:59;;;;;;;12.23;8.27;;;;;;;44.21;16.55;100434.80;126782;1088;114676;-81
2021/06/07 06:39:47;;;;;;;13.73;8.17;;;;;;;44.51;15.80;100425.88;126782;1088;102863;-81
2021/06/07 06:42:35;;;;;;;11.37;6.57;;;;;;;44.77;15.20;100433.13;126722;1089;102877;-81
2021/06/07 06:45:25;;;;;;;7.37;4.17;;;;;;;45.01;14.75;100429.91;126828;1090;113980;-81
2021/06/07 06:48:13;;;;;;;12.03;8.37;;;;;;;45.21;14.67;100424.42;126741;1089;102872;-81
2021/06/07 06:51:03;;;;;;;11.87;8.27;;;;;;;45.70;14.38;100433.02;126632;1090;114285;-81
2021/06/07 06:53:50;;;;;;;12.07;8.30;;;;;;;45.77;14.06;100433.55;126853;1090;103018;-81
2021/06/07 06:56:38;;;;;;;4.73;3.10;;;;;;;45.72;13.29;100438.25;126572;1089;114376;-81
2021/06/07 06:59:26;;;;;;;10.37;7.97;;;;;;;45.96;13.40;100436.55;126864;1089;102856;-81
2021/06/07 07:02:14;;;;;;;11.93;6.77;;;;;;;46.26;13.51;100432.09;126695;1089;114298;-82
2021/06/07 07:05:04;;;;;;;7.17;5.00;;;;;;;46.31;12.73;100432.06;126867;1087;102933;-82
2021/06/07 07:07:52;;;;;;;5.83;3.40;;;;;;;46.17;12.26;100433.79;126669;1088;114119;-82
2021/06/07 07:10:41;;;;;;;9.15;6.75;;;;;;;46.00;12.84;100436.84;126855;1089;102872;-82
2021/06/07 07:13:30;;;;;;;8.43;6.47;;;;;;;46.05;12.39;100429.40;126609;1090;114088;-82
2021/06/07 07:16:18;;;;;;;11.30;7.70;;;;;;;45.94;12.56;100433.25;126865;1089;102865;-82
2021/06/07 07:19:06;;;;;;;6.27;4.03;;;;;;;46.24;12.26;100437.06;126705;1090;113202;-80
2021/06/07 07:21:53;;;;;;;10.63;6.00;;;;;;;46.28;12.19;100433.45;126742;1089;103116;-82
2021/06/07 07:24:44;;;;;;;10.33;6.70;;;;;;;46.44;12.12;100444.46;126878;1089;102824;-82
2021/06/07 07:27:35;;;;;;;13.60;10.10;;;;;;;46.39;12.15;100434.28;126736;1090;114488;-82
2021/06/07 07:30:27;;;;;;;12.73;7.10;;;;;;;46.42;11.96;100443.92;126915;1090;103018;-81
2021/06/07 07:33:15;;;;;;;4.90;3.50;;;;;;;46.26;11.35;100443.12;126645;1089;114286;-81
2021/06/07 07:36:05;;;;;;;15.07;10.57;;;;;;;46.25;12.14;100439.54;126796;1090;103066;-81
2021/06/07 07:38:52;;;;;;;8.40;6.30;;;;;;;46.16;11.85;100437.66;126680;1088;114817;-80
2021/06/07 07:41:40;;;;;;;8.80;5.67;;;;;;;45.73;11.21;100434.39;126895;1090;102943;-81
2021/06/07 07:44:28;;;;;;;7.87;4.47;;;;;;;45.36;11.34;100443.74;126624;1088;113986;-81
2021/06/07 07:47:17;;;;;;;10.37;7.33;;;;;;;45.42;11.95;100436.30;126726;1089;102753;-81
2021/06/07 07:50:09;;;;;;;8.30;5.80;;;;;;;45.68;11.43;100439.92;126614;1090;114370;-81
2021/06/07 07:52:57;;;;;;;6.33;5.27;;;;;;;45.35;11.46;100442.09;126852;1088;102893;-80
2021/06/07 07:55:51;;;;;;;9.57;6.30;;;;;;;45.27;11.54;100439.08;126826;1089;113353;-82
2021/06/07 07:58:38;;;;;;;6.70;5.80;;;;;;;45.11;11.63;100441.77;126910;1090;103074;-82
2021/06/07 08:01:26;;;;;;;9.97;5.67;;;;;;;44.83;11.61;100442.22;126574;1089;114375;-81
2021/06/07 08:04:14;;;;;;;7.80;6.15;;;;;;;44.63;11.69;100444.91;126878;1090;102673;-81
2021/06/07 08:07:03;;;;;;;12.23;8.63;;;;;;;44.56;11.75;100435.00;126908;1090;102911;-82
2021/06/07 08:09:50;;;;;;;8.27;5.83;;;;;;;44.42;11.86;100433.80;126742;1089;114254;-81
2021/06/07 08:12:40;;;;;;;6.67;4.63;;;;;;;44.09;11.83;100437.76;126804;1089;101434;-81
2021/06/07 08:15:35;;;;;;;11.27;7.40;;;;;;;43.87;12.00;100442.54;126640;1089;114321;-81
2021/06/07 08:18:23;;;;;;;9.90;7.23;;;;;;;43.76;12.01;100438.05;126814;1090;102868;-80
2021/06/07 08:21:11;;;;;;;5.57;4.73;;;;;;;43.60;11.95;100432.41;126778;1089;114137;-81
2021/06/07 08:23:59;;;;;;;13.93;11.33;;;;;;;43.38;12.49;100431.68;126948;1090;101805;-81
2021/06/07 08:26:47;;;;;;;5.23;4.57;;;;;;;43.26;11.90;100437.30;126694;1090;114659;-83
2021/06/07 08:29:36;;;;;;;8.27;4.57;;;;;;;42.93;12.45;100430.13;126857;1089;102927;-82
2021/06/07 08:32:24;;;;;;;10.97;7.80;;;;;;;42.76;12.15;100430.19;126708;1090;114023;-82
2021/06/07 08:35:12;;;;;;;8.83;5.67;;;;;;;42.82;12.46;100425.58;126887;1090;102873;-81
2021/06/07 08:38:01;;;;;;;9.83;7.50;;;;;;;42.94;12.24;100425.47;126811;1090;114462;-81
2021/06/07 08:40:53;;;;;;;22.70;15.43;;;;;;;42.60;12.15;100424.78;126968;1089;102972;-81
2021/06/07 08:43:41;;;;;;;14.47;10.07;;;;;;;42.15;12.75;100426.63;126782;1088;113661;-80
2021/06/07 08:46:41;;;;;;;8.70;5.50;;;;;;;41.74;12.92;100425.18;126859;1089;103051;-80
2021/06/07 08:49:29;;;;;;;15.03;9.90;;;;;;;41.20;12.90;100423.94;126834;1090;102879;-81
2021/06/07 08:52:18;;;;;;;12.47;8.90;;;;;;;41.18;13.16;100421.45;126793;1090;101154;-81
2021/06/07 08:55:07;;;;;;;8.27;6.03;;;;;;;41.11;12.91;100426.22;126896;1088;102918;-81
2021/06/07 08:57:56;;;;;;;7.43;5.67;;;;;;;40.97;13.10;100413.95;126683;1090;114214;-80
2021/06/07 09:00:44;;;;;;;4.83;3.80;;;;;;;40.57;13.37;100416.66;126764;1090;102918;-80
2021/06/07 09:03:34;;;;;;;6.60;5.53;;;;;;;40.42;13.32;100415.30;126785;1090;114241;-81
2021/06/07 09:06:26;;;;;;;4.40;3.60;;;;;;;40.43;13.27;100413.39;126882;1090;102915;-81
2021/06/07 09:09:22;;;;;;;5.03;4.23;;;;;;;40.55;13.65;100414.17;126756;1088;113107;-80
2021/06/07 09:12:21;;;;;;;9.38;7.88;;;;;;;40.25;13.65;100413.52;126856;1089;102868;-81
2021/06/07 09:15:28;;;;;;;18.40;11.30;;;;;;;40.12;13.49;100414.59;126673;1089;114105;-81
2021/06/07 09:18:32;;;;;;;7.37;5.77;;;;;;;40.08;13.63;100411.52;126883;1089;102918;-81
2021/06/07 09:21:24;;;;;;;6.67;5.03;;;;;;;39.84;13.83;100404.35;126827;1089;114162;-80
2021/06/07 09:24:14;;;;;;;10.57;7.10;;;;;;;39.57;13.90;100410.28;126831;1090;103310;-82
2021/06/07 09:27:07;;;;;;;9.57;5.80;;;;;;;39.22;13.92;100410.19;126885;1090;114278;-81
2021/06/07 09:29:56;;;;;;;14.57;10.40;;;;;;;39.02;14.15;100411.52;126796;1090;102991;-81
2021/06/07 09:33:25;;;;;;;6.07;4.63;;;;;;;38.94;14.30;100401.75;126563;1090;115050;-80
2021/06/07 09:36:16;;;;;;;20.40;13.37;;;;;;;38.72;14.49;100409.60;126697;1090;103109;-80
2021/06/07 09:39:08;;;;;;;10.87;7.47;;;;;;;38.58;14.46;100405.34;126585;1090;113345;-80
2021/06/07 09:42:09;;;;;;;9.37;4.83;;;;;;;38.29;14.63;100396.91;126635;1088;103153;-81
2021/06/07 09:44:57;;;;;;;6.73;4.93;;;;;;;37.99;14.64;100395.94;126569;1090;114485;-81
2021/06/07 09:47:44;;;;;;;8.67;6.80;;;;;;;37.96;15.04;100390.94;126611;1088;103031;-81
2021/06/07 09:50:32;;;;;;;10.70;7.37;;;;;;;37.70;14.77;100390.09;126584;1090;114297;-82
2021/06/07 09:53:52;;;;;;;7.30;5.00;;;;;;;37.50;15.35;100394.88;126900;1088;102891;-82
2021/06/07 09:56:48;;;;;;;9.57;5.07;;;;;;;37.57;15.86;100373.91;126746;1089;113311;-82
2021/06/07 09:59:43;;;;;;;10.33;8.43;;;;;;;37.73;15.51;100376.09;126848;1089;102905;-79
2021/06/07 10:02:36;;;;;;;14.10;8.07;;;;;;;37.30;15.46;100383.32;126732;1090;113645;-84
2021/06/07 10:05:34;;;;;;;7.07;5.70;;;;;;;36.76;15.10;100385.47;126827;1089;101791;-83
2021/06/07 10:08:23;;;;;;;7.43;5.60;;;;;;;36.80;15.52;100380.46;126666;1090;114298;-83
2021/06/07 10:11:21;;;;;;;4.37;3.73;;;;;;;36.67;15.60;100384.08;126724;1090;102939;-83
2021/06/07 10:14:21;;;;;;;8.23;6.67;;;;;;;36.67;15.73;100384.08;126878;1090;100629;-83
2021/06/07 10:17:09;;;;;;;4.17;3.70;;;;;;;36.45;15.82;100386.27;126911;1090;103370;-83
2021/06/07 10:22:55;;;;;;;17.57;11.20;;;;;;;36.39;16.04;100376.23;126787;1090;113232;-82
2021/06/07 10:25:42;;;;;;;7.40;4.97;;;;;;;36.15;15.76;100372.32;126844;1089;102991;-82
2021/06/07 10:28:37;;;;;;;16.50;12.17;;;;;;;36.01;16.42;100366.08;126676;1089;113070;-82
2021/06/07 10:31:26;;;;;;;7.07;5.70;;;;;;;35.89;16.35;100373.20;126784;1089;102846;-82
2021/06/07 10:34:14;;;;;;;9.50;6.63;;;;;;;35.81;16.90;100370.69;126719;1089;114465;-82
2021/06/07 10:37:03;;;;;;;10.67;8.07;;;;;;;35.59;16.64;100361.95;126749;1088;102904;-82
2021/06/07 10:39:52;;;;;;;6.30;4.90;;;;;;;35.21;16.74;100375.26;126763;1090;114414;-82
2021/06/07 10:47:04;;;;;;;11.30;6.87;;;;;;;34.31;18.13;100365.54;126749;1090;114169;-81
2021/06/07 10:54:31;;;;;;;9.13;5.80;;;;;;;33.96;18.40;100353.06;126616;1090;103051;-81
2021/06/07 10:57:27;;;;;;;10.67;7.77;;;;;;;33.72;18.25;100359.71;126601;1090;114301;-82
2021/06/07 11:00:26;;;;;;;8.23;4.70;;;;;;;33.51;18.38;100352.48;126630;1090;103117;-81
2021/06/07 11:03:23;;;;;;;5.73;3.60;;;;;;;33.10;18.64;100363.11;126531;1089;114308;-81
2021/06/07 11:23:15;;;;;;;5.15;4.20;;;;;;;30.77;20.64;100365.95;126493;1093;102986;-83
2021/06/07 11:26:08;;;;;;;3.23;2.93;;;;;;;30.79;20.80;100365.78;126271;1092;102671;-82
2021/06/07 11:29:02;;;;;;;2.90;2.60;;;;;;;30.87;21.01;100368.41;126224;1092;113771;-82
2021/06/07 11:32:10;;;;;;;4.23;2.50;;;;;;;30.84;20.71;100364.22;126349;1093;102873;-82
2021/06/07 11:34:59;;;;;;;4.17;2.60;;;;;;;30.77;20.92;100359.73;126142;1093;113659;-82
2021/06/07 11:37:47;;;;;;;3.43;2.50;;;;;;;30.86;20.91;100359.48;126322;1092;102916;-81
2021/06/07 11:41:21;;;;;;;4.80;2.67;;;;;;;30.95;20.75;100344.97;126173;1093;113858;-81
2021/06/07 11:44:12;;;;;;;3.77;2.63;;;;;;;30.90;21.10;100354.61;126254;1092;103303;-81
2021/06/07 11:47:51;;;;;;;3.53;2.50;;;;;;;30.78;21.46;100339.87;126179;1093;113562;-82
2021/06/07 11:50:42;;;;;;;3.00;2.70;;;;;;;30.56;21.65;100345.02;126411;1093;103318;-81
2021/06/07 11:53:32;;;;;;;2.55;2.35;;;;;;;30.45;21.32;100342.70;126141;1093;113929;-79
2021/06/07 11:56:22;;;;;;;2.90;2.70;;;;;;;30.28;21.55;100346.47;126213;1093;103570;-78
2021/06/07 11:59:11;;;;;;;2.80;2.60;;;;;;;30.24;21.46;100334.39;126201;1093;114143;-84
2021/06/07 12:01:59;;;;;;;2.53;2.33;;;;;;;30.29;21.94;100332.00;126291;1093;102996;-83
2021/06/07 12:04:49;;;;;;;2.50;2.30;;;;;;;30.26;21.51;100332.36;126157;1093;114163;-83
2021/06/07 12:07:38;;;;;;;4.70;2.87;;;;;;;30.07;21.70;100326.38;126293;1093;102897;-83
2021/06/07 12:10:25;;;;;;;3.00;2.40;;;;;;;29.88;21.94;100318.67;126238;1093;103218;-83
2021/06/07 12:13:28;;;;;;;2.67;2.47;;;;;;;29.88;22.05;100329.43;126212;1093;113566;-83
2021/06/07 12:16:17;;;;;;;4.60;2.80;;;;;;;29.79;22.54;100325.06;126345;1096;102863;-83
2021/06/07 12:19:12;;;;;;;2.70;2.50;;;;;;;29.70;22.52;100329.64;126153;1093;113784;-83
2021/06/07 12:22:01;;;;;;;6.60;2.87;;;;;;;29.54;22.43;100326.97;126306;1093;102981;-82
2021/06/07 12:28:19;;;;;;;11.70;7.68;;;;;;;29.26;23.22;100329.13;126342;1096;102889;-83
2021/06/07 12:31:07;;;;;;;12.33;8.90;;;;;;;29.31;23.42;100321.42;126283;1095;114001;-83
2021/06/07 12:33:55;;;;;;;15.13;9.30;;;;;;;29.35;23.43;100319.23;126291;1096;103531;-84
2021/06/07 12:36:49;;;;;;;8.73;6.00;;;;;;;29.29;23.33;100318.06;126284;1096;114140;-82
2021/06/07 12:39:36;;;;;;;13.43;7.73;;;;;;;29.26;23.19;100306.80;126205;1096;102979;-83
2021/06/07 12:42:33;;;;;;;6.80;4.67;;;;;;;29.17;23.18;100311.34;126272;1096;114162;-84
2021/06/07 12:45:43;;;;;;;10.70;6.98;;;;;;;29.16;23.38;100306.98;126170;1095;101723;-81
2021/06/07 12:48:44;;;;;;;7.37;5.87;;;;;;;29.05;23.68;100307.30;126204;1096;113262;-82
2021/06/07 12:51:32;;;;;;;8.23;6.03;;;;;;;28.85;24.02;100304.06;126275;1096;102866;-83
2021/06/07 12:54:21;;;;;;;5.47;4.27;;;;;;;28.80;24.16;100304.56;126151;1093;114037;-83
2021/06/07 12:57:10;;;;;;;9.50;5.20;;;;;;;28.72;24.39;100299.17;126390;1096;101145;-83
2021/06/07 12:59:58;;;;;;;10.97;7.70;;;;;;;28.69;24.36;100304.03;126231;1096;112775;-83
2021/06/07 13:02:46;;;;;;;5.67;4.40;;;;;;;28.63;24.18;100302.02;126381;1096;103241;-81
2021/06/07 13:05:39;;;;;;;11.90;7.60;;;;;;;28.58;24.29;100302.52;126183;1095;113325;-84
2021/06/07 13:08:27;;;;;;;11.40;7.93;;;;;;;28.51;24.42;100296.95;126369;1095;103010;-84
2021/06/07 13:11:21;;;;;;;10.27;6.67;;;;;;;28.39;24.55;100302.80;126217;1096;114106;-81
2021/06/07 13:14:18;;;;;;;11.83;7.80;;;;;;;28.35;24.57;100296.05;126349;1095;102951;-82
2021/06/07 13:17:15;;;;;;;6.77;4.97;;;;;;;28.33;25.12;100292.70;126181;1095;113279;-82
2021/06/07 13:20:16;;;;;;;7.80;4.83;;;;;;;28.31;24.75;100286.66;126360;1096;102786;-82
2021/06/07 13:23:04;;;;;;;7.90;5.83;;;;;;;28.28;25.22;100296.72;126153;1096;113910;-84
2021/06/07 13:25:52;;;;;;;9.85;5.50;;;;;;;28.41;25.25;100285.53;126390;1096;102859;-82